Terminal Aerodrome Forecast
Issued by NWS

Home | Current Version | Previous Version | Text Only | Print | Product List | Glossary On
Versions: 1 2 3 4 5 6 7 8 9 10 11 12 13 14 15 16 17 18
000
FTUS42 KFFC 311700 RRA
TAFPDK
TAF
KPDK 311742Z 3118/0118 VRB04KT P6SM BKN030
     FM312200 07006KT P6SM BKN050
     FM010500 06005KT P6SM BKN018
     FM010800 06003KT P6SM BKN007 PROB30 0109/0115 4SM -RA BR
     FM011500 07005KT 5SM -SHRA BKN015 BKN025=

USA.gov is the U.S. government's official web portal to all federal, state and local government web resources and services.